Pearsall, Texas
Current Conditions -  °F | °C
As of 5:53 AM on Monday 22 Dec 2014 (Local Time) from KCOT Reporting Station
Overcast Overcast  
Wind Chill: 58°   Ceiling: 1200
Heat Index: 58°   Visibility: 10mi
Dew Point: 54°   Wind: 3mph
Humidity: 87%   Direction: 200°SSW
Pressure: 29.76"   Gusts: NA
Location:  28.89°N, 99.09°W
Report Text: KCOT 221153Z AUTO 20003KT 10SM OVC012 14/12 A2976 RMK AO2 SLP074 T01440122 10150 20128 58009
Loading
Personal Weather Stations






























Interactive Weather Map New forecast layout! Learn more

10-Day Weather Forecast

Advertisements
Track Severe Weather on mobile